Brainard, South Dakota
Current Conditions -  °F | °C
As of 10:53 AM on Saturday 20 Dec 2014 (Local Time) from KABR Reporting Station
Moderate Fog Moderate Fog  
Wind Chill: 16°   Ceiling: 200
Heat Index: 26°   Visibility: 0.5mi
Dew Point: 24°   Wind: 12mph
Humidity: 92%   Direction: 180°S
Pressure: 30.01"   Gusts: NA
Location:  45.7212°N, 98.6008°W
Report Text: KABR 201653Z AUTO 18010KT 1/2SM FZFG OVC002 M03/M04 A3001 RMK AO2 SLP180 I1001 T10331044
Loading
Personal Weather Stations






























Interactive Weather Map New forecast layout! Learn more

10-Day Weather Forecast

Advertisements
Track Severe Weather on mobile